Time;durP1;ratioP1;P1;durP2;ratioP2;P2;SDS_P1;SDS_P2;PMS_P1;PMS_P2;Temp;Humidity;BMP_temperature;BMP_pressure;BME280_temperature;BME280_humidity;BME280_pressure;Samples;Min_cycle;Max_cycle;Signal;HPM_P1;HPM_P2
2021/12/21 00:02:26;;;;;;;5.10;2.03;;;;;;;;;;5095577;28;20073;-68
2021/12/21 00:04:52;;;;;;;3.10;1.80;;;;;;;;;;5095570;28;20031;-67
2021/12/21 00:07:18;;;;;;;4.25;2.20;;;;;;;;;;5077167;28;20450;-67
2021/12/21 00:09:44;;;;;;;4.43;2.00;;;;;;;;;;5077329;28;20525;-68
2021/12/21 00:12:13;;;;;;;4.40;2.25;;;;;;;;;;5095466;28;20048;-69
2021/12/21 00:14:57;;;;;;;4.75;2.17;;;;;;;;;;5095969;28;20016;-67
2021/12/21 00:17:46;;;;;;;3.88;2.33;;;;;;;;;;5095762;28;20479;-66
2021/12/21 00:25:13;;;;;;;5.47;2.55;;;;;;;;;;5075593;28;20071;-66
2021/12/21 00:27:39;;;;;;;7.28;3.03;;;;;;;;;;5075333;28;20056;-66
2021/12/21 00:30:05;;;;;;;4.38;2.33;;;;;;;;;;5075238;28;20028;-67
2021/12/21 00:32:31;;;;;;;3.90;2.55;;;;;;;;;;5057344;28;20032;-69
2021/12/21 00:34:57;;;;;;;6.70;2.20;;;;;;;;;;5057106;28;20051;-66
2021/12/21 00:37:27;;;;;;;6.30;2.50;;;;;;;;;;5058795;28;20047;-67
2021/12/21 00:39:53;;;;;;;7.15;2.40;;;;;;;;;;5095080;28;20096;-68
2021/12/21 00:42:18;;;;;;;5.95;2.70;;;;;;;;;;5095229;28;20111;-66
2021/12/21 00:44:44;;;;;;;5.68;2.67;;;;;;;;;;5113087;28;20024;-66
2021/12/21 00:47:11;;;;;;;5.38;2.50;;;;;;;;;;5105670;28;20066;-66
2021/12/21 00:49:44;;;;;;;4.95;2.50;;;;;;;;;;5097269;28;20032;-66
2021/12/21 00:52:10;;;;;;;6.18;2.60;;;;;;;;;;5110945;28;20365;-67
2021/12/21 00:54:36;;;;;;;3.92;2.15;;;;;;;;;;5115509;28;20028;-67
2021/12/21 00:57:04;;;;;;;6.15;2.70;;;;;;;;;;5115227;28;20024;-68
2021/12/21 00:59:30;;;;;;;4.97;2.60;;;;;;;;;;5114155;28;20546;-66
2021/12/21 01:01:56;;;;;;;6.57;2.53;;;;;;;;;;5094781;28;20418;-69
2021/12/21 01:04:28;;;;;;;7.70;2.45;;;;;;;;;;5095056;28;20058;-69
2021/12/21 01:07:03;;;;;;;7.32;2.58;;;;;;;;;;5094834;28;20020;-68
2021/12/21 01:12:10;;;;;;;7.10;2.80;;;;;;;;;;5094906;28;20085;-69
2021/12/21 01:17:24;;;;;;;8.80;2.80;;;;;;;;;;5094820;28;20035;-69
2021/12/21 01:20:06;;;;;;;7.97;2.58;;;;;;;;;;5094536;28;20028;-71
2021/12/21 01:28:12;;;;;;;5.13;2.63;;;;;;;;;;5074570;28;20062;-71
2021/12/21 01:30:50;;;;;;;3.95;2.40;;;;;;;;;;5074285;28;20051;-66
2021/12/21 01:33:39;;;;;;;11.70;2.85;;;;;;;;;;5089884;28;20028;-68
2021/12/21 01:36:14;;;;;;;15.40;3.00;;;;;;;;;;5091294;28;20090;-69
2021/12/21 01:38:52;;;;;;;9.57;2.60;;;;;;;;;;5076609;28;20044;-70
2021/12/21 01:44:35;;;;;;;6.45;2.78;;;;;;;;;;5064462;28;20486;-67
2021/12/21 01:49:49;;;;;;;5.60;2.80;;;;;;;;;;5093491;28;20089;-68
2021/12/21 01:52:17;;;;;;;7.20;2.60;;;;;;;;;;5109923;28;20016;-68
2021/12/21 01:54:43;;;;;;;7.40;2.88;;;;;;;;;;5114001;28;20036;-67
2021/12/21 01:57:10;;;;;;;5.72;2.70;;;;;;;;;;5114088;28;20027;-68
2021/12/21 01:59:36;;;;;;;4.00;2.22;;;;;;;;;;5093469;28;20125;-68
2021/12/21 02:02:03;;;;;;;4.85;2.78;;;;;;;;;;5093377;28;20082;-70
2021/12/21 02:04:29;;;;;;;6.45;2.85;;;;;;;;;;5093733;28;20020;-67
2021/12/21 02:06:55;;;;;;;5.70;2.85;;;;;;;;;;5075271;28;20340;-68
2021/12/21 02:09:26;;;;;;;8.05;2.58;;;;;;;;;;5093701;28;20020;-68
2021/12/21 02:11:52;;;;;;;4.32;2.42;;;;;;;;;;5093600;28;20406;-68
2021/12/21 02:14:21;;;;;;;6.72;2.60;;;;;;;;;;5093733;28;20028;-68
2021/12/21 02:17:47;;;;;;;6.00;2.78;;;;;;;;;;5075468;28;20103;-67
2021/12/21 02:20:07;;;;;;;5.63;2.40;;;;;;;;;;5103439;28;20114;-69
2021/12/21 02:22:37;;;;;;;7.20;2.42;;;;;;;;;;5113694;28;20039;-68
2021/12/21 02:25:33;;;;;;;5.00;2.75;;;;;;;;;;5095163;28;20012;-68
2021/12/21 02:30:45;;;;;;;6.32;2.92;;;;;;;;;;5073188;28;20456;-69
2021/12/21 02:33:13;;;;;;;4.78;2.70;;;;;;;;;;5073136;28;20020;-67
2021/12/21 02:35:39;;;;;;;4.70;2.28;;;;;;;;;;5072967;28;20016;-67
2021/12/21 02:38:05;;;;;;;6.88;3.00;;;;;;;;;;5072645;28;20103;-66
2021/12/21 02:40:31;;;;;;;4.70;2.50;;;;;;;;;;5072945;28;20476;-67
2021/12/21 02:42:57;;;;;;;5.80;3.13;;;;;;;;;;5059372;28;20031;-67
2021/12/21 02:45:24;;;;;;;5.30;2.50;;;;;;;;;;5109717;28;20046;-66
2021/12/21 02:47:50;;;;;;;8.30;2.90;;;;;;;;;;5087363;28;20024;-68
2021/12/21 02:50:16;;;;;;;6.10;2.88;;;;;;;;;;5092982;28;20023;-67
2021/12/21 02:52:42;;;;;;;12.18;3.00;;;;;;;;;;5113036;28;20031;-66
2021/12/21 02:55:08;;;;;;;7.35;2.83;;;;;;;;;;5113117;28;20416;-66
2021/12/21 02:57:34;;;;;;;7.32;2.42;;;;;;;;;;5113257;28;20425;-67
2021/12/21 03:00:01;;;;;;;9.18;2.50;;;;;;;;;;5113176;28;20034;-67
2021/12/21 03:02:28;;;;;;;5.82;2.60;;;;;;;;;;5080481;28;20028;-69
2021/12/21 03:04:55;;;;;;;7.65;2.67;;;;;;;;;;5074712;28;20167;-68
2021/12/21 03:07:50;;;;;;;6.20;2.78;;;;;;;;;;5092694;28;20032;-67
2021/12/21 03:10:11;;;;;;;7.70;2.97;;;;;;;;;;5092410;28;20049;-68
2021/12/21 03:15:23;;;;;;;4.72;2.47;;;;;;;;;;5092965;28;20104;-67
2021/12/21 03:17:50;;;;;;;4.07;2.47;;;;;;;;;;5092606;28;20020;-67
2021/12/21 03:20:16;;;;;;;7.75;2.42;;;;;;;;;;5078088;28;20076;-69
2021/12/21 03:22:42;;;;;;;11.13;2.45;;;;;;;;;;5092483;28;20066;-67
2021/12/21 03:25:09;;;;;;;4.25;2.30;;;;;;;;;;5092413;28;20029;-71
2021/12/21 03:27:35;;;;;;;5.63;2.33;;;;;;;;;;5074542;28;20063;-70
2021/12/21 03:30:01;;;;;;;5.75;2.40;;;;;;;;;;5074500;28;20031;-70
2021/12/21 03:32:27;;;;;;;7.30;2.30;;;;;;;;;;5092532;28;20024;-69
2021/12/21 03:34:53;;;;;;;8.90;2.70;;;;;;;;;;5091315;28;20103;-69
2021/12/21 03:37:19;;;;;;;5.57;2.55;;;;;;;;;;5092530;28;20028;-69
2021/12/21 03:39:46;;;;;;;5.13;2.78;;;;;;;;;;5074103;28;20052;-70
2021/12/21 03:42:13;;;;;;;6.25;2.20;;;;;;;;;;5092347;28;20391;-69
2021/12/21 03:44:40;;;;;;;7.38;2.35;;;;;;;;;;5109410;28;20024;-69
2021/12/21 03:47:09;;;;;;;7.00;2.40;;;;;;;;;;5112593;28;20038;-70
2021/12/21 03:52:16;;;;;;;9.77;2.53;;;;;;;;;;5113007;28;20067;-68
2021/12/21 03:54:43;;;;;;;6.00;2.42;;;;;;;;;;5092397;28;20019;-68
2021/12/21 03:57:10;;;;;;;6.45;2.40;;;;;;;;;;5114538;28;20103;-67
2021/12/21 03:59:36;;;;;;;4.40;2.20;;;;;;;;;;5105593;28;20090;-69
2021/12/21 04:02:02;;;;;;;5.45;2.53;;;;;;;;;;5095717;28;20031;-67
2021/12/21 04:04:28;;;;;;;9.32;2.65;;;;;;;;;;5077840;28;20021;-67
2021/12/21 04:06:54;;;;;;;6.82;2.25;;;;;;;;;;5084810;28;20036;-67
2021/12/21 04:09:20;;;;;;;5.88;2.63;;;;;;;;;;5075093;28;20020;-67
2021/12/21 04:11:46;;;;;;;7.07;2.80;;;;;;;;;;5075361;28;20104;-67
2021/12/21 04:14:13;;;;;;;6.47;2.60;;;;;;;;;;5085211;28;20030;-68
2021/12/21 04:16:40;;;;;;;3.35;2.08;;;;;;;;;;5095611;28;20043;-67
2021/12/21 04:19:06;;;;;;;8.68;2.30;;;;;;;;;;5104463;28;20019;-67
2021/12/21 04:21:32;;;;;;;5.07;2.20;;;;;;;;;;5116067;28;20531;-67
2021/12/21 04:23:58;;;;;;;3.97;2.20;;;;;;;;;;5097569;28;20031;-67
2021/12/21 04:26:24;;;;;;;4.38;2.28;;;;;;;;;;5115729;28;20035;-67
2021/12/21 04:28:50;;;;;;;7.50;2.40;;;;;;;;;;5115979;28;20019;-66
2021/12/21 04:31:16;;;;;;;6.80;2.17;;;;;;;;;;5097472;28;20024;-67
2021/12/21 04:33:43;;;;;;;4.07;2.08;;;;;;;;;;5115819;28;20028;-67
2021/12/21 04:36:09;;;;;;;4.50;2.60;;;;;;;;;;5096897;28;20032;-67
2021/12/21 04:38:39;;;;;;;3.80;2.22;;;;;;;;;;5094827;28;20047;-68
2021/12/21 04:41:13;;;;;;;6.20;2.38;;;;;;;;;;5094957;28;20028;-68
2021/12/21 04:43:39;;;;;;;4.75;2.30;;;;;;;;;;5103605;28;20012;-68
2021/12/21 04:46:06;;;;;;;4.22;2.03;;;;;;;;;;5114995;28;20419;-68
2021/12/21 04:48:32;;;;;;;4.82;2.30;;;;;;;;;;5095150;28;20024;-67
2021/12/21 04:50:58;;;;;;;8.52;2.35;;;;;;;;;;5099173;28;20111;-67
2021/12/21 04:53:24;;;;;;;9.27;2.53;;;;;;;;;;5115519;28;20063;-67
2021/12/21 04:55:50;;;;;;;6.07;2.30;;;;;;;;;;5115244;28;20527;-67
2021/12/21 04:58:16;;;;;;;5.00;2.60;;;;;;;;;;5097326;28;20031;-67
2021/12/21 05:00:43;;;;;;;6.07;2.40;;;;;;;;;;5096678;28;20036;-69
2021/12/21 05:03:09;;;;;;;19.02;2.75;;;;;;;;;;5115211;28;20042;-69
2021/12/21 05:05:35;;;;;;;8.27;2.60;;;;;;;;;;5114762;28;20027;-69
2021/12/21 05:08:10;;;;;;;7.10;2.90;;;;;;;;;;5096890;28;20035;-68
2021/12/21 05:10:44;;;;;;;15.38;2.40;;;;;;;;;;5115064;28;20026;-69
2021/12/21 05:13:10;;;;;;;17.42;3.10;;;;;;;;;;5115003;28;20019;-68
2021/12/21 05:15:36;;;;;;;4.93;2.40;;;;;;;;;;5115317;28;20065;-69
2021/12/21 05:18:02;;;;;;;9.95;2.30;;;;;;;;;;5114743;28;20103;-68
2021/12/21 05:20:28;;;;;;;11.52;2.78;;;;;;;;;;5114830;28;20039;-70
2021/12/21 05:22:54;;;;;;;6.70;2.70;;;;;;;;;;5108080;28;20028;-69
2021/12/21 05:25:20;;;;;;;9.23;2.85;;;;;;;;;;5094204;28;20046;-69
2021/12/21 05:27:46;;;;;;;4.95;2.35;;;;;;;;;;5093873;28;20022;-69
2021/12/21 05:30:13;;;;;;;5.90;2.72;;;;;;;;;;5093883;28;20375;-69
2021/12/21 05:32:39;;;;;;;6.18;2.10;;;;;;;;;;5093727;28;20020;-67
2021/12/21 05:35:06;;;;;;;3.65;1.90;;;;;;;;;;5075926;28;20459;-67
2021/12/21 05:37:32;;;;;;;5.55;2.42;;;;;;;;;;5076031;28;20119;-67
2021/12/21 05:40:10;;;;;;;5.82;2.50;;;;;;;;;;5091101;28;20487;-67
2021/12/21 05:42:36;;;;;;;4.85;2.50;;;;;;;;;;5073969;28;20131;-68
2021/12/21 05:45:03;;;;;;;6.28;2.95;;;;;;;;;;5095639;28;20028;-68
2021/12/21 05:47:29;;;;;;;5.88;2.67;;;;;;;;;;5083646;28;20020;-67
2021/12/21 05:49:55;;;;;;;5.03;2.85;;;;;;;;;;5093706;28;20024;-67
2021/12/21 05:52:21;;;;;;;7.00;2.88;;;;;;;;;;5111052;28;20103;-68
2021/12/21 05:54:49;;;;;;;8.95;2.80;;;;;;;;;;5114266;28;20051;-68
2021/12/21 05:57:15;;;;;;;11.20;3.08;;;;;;;;;;5114017;28;20023;-68
2021/12/21 05:59:41;;;;;;;6.75;3.10;;;;;;;;;;5114281;28;20445;-68
2021/12/21 06:02:08;;;;;;;7.57;2.42;;;;;;;;;;5095656;28;20040;-67
2021/12/21 06:04:34;;;;;;;9.43;2.85;;;;;;;;;;5113962;28;20032;-68
2021/12/21 06:07:00;;;;;;;14.10;2.80;;;;;;;;;;5114039;28;20035;-68
2021/12/21 06:09:28;;;;;;;6.63;2.83;;;;;;;;;;5113752;28;20019;-67
2021/12/21 06:12:16;;;;;;;8.98;2.83;;;;;;;;;;5113640;28;20032;-68
2021/12/21 06:23:17;;;;;;;6.50;2.78;;;;;;;;;;5113869;28;20030;-70
2021/12/21 06:25:53;;;;;;;11.65;3.08;;;;;;;;;;5115818;27;20463;-72
2021/12/21 06:28:19;;;;;;;9.70;2.33;;;;;;;;;;5112964;28;20046;-74
2021/12/21 06:30:45;;;;;;;12.63;2.70;;;;;;;;;;5114132;28;20034;-72
2021/12/21 06:33:11;;;;;;;14.02;2.53;;;;;;;;;;5113906;28;20107;-72
2021/12/21 06:35:38;;;;;;;7.68;2.95;;;;;;;;;;5095705;28;20051;-70
2021/12/21 06:38:04;;;;;;;11.23;3.05;;;;;;;;;;5113205;28;20463;-70
2021/12/21 06:40:31;;;;;;;8.77;2.55;;;;;;;;;;5091737;28;20041;-71
2021/12/21 06:43:00;;;;;;;6.95;2.40;;;;;;;;;;5054406;28;20039;-71
2021/12/21 06:46:44;;;;;;;7.60;2.92;;;;;;;;;;5073044;28;20040;-71
2021/12/21 06:51:14;;;;;;;6.00;2.40;;;;;;;;;;5073052;28;20043;-70
2021/12/21 06:53:41;;;;;;;7.07;2.53;;;;;;;;;;5072881;28;20425;-69
2021/12/21 06:56:09;;;;;;;6.07;2.53;;;;;;;;;;5072292;28;20411;-69
2021/12/21 06:58:35;;;;;;;6.43;2.95;;;;;;;;;;5072658;28;20107;-69
2021/12/21 07:01:01;;;;;;;5.43;2.60;;;;;;;;;;5072608;28;20082;-69
2021/12/21 07:03:27;;;;;;;7.53;2.40;;;;;;;;;;5072701;28;20387;-70
2021/12/21 07:05:53;;;;;;;5.18;2.03;;;;;;;;;;5072767;28;20029;-69
2021/12/21 07:08:25;;;;;;;6.32;2.65;;;;;;;;;;5072309;28;20038;-69
2021/12/21 07:11:07;;;;;;;8.53;2.60;;;;;;;;;;5072289;28;20460;-68
2021/12/21 07:19:03;;;;;;;4.45;2.40;;;;;;;;;;5100415;28;20395;-68
2021/12/21 07:21:29;;;;;;;5.40;2.25;;;;;;;;;;5113027;28;20036;-70
2021/12/21 07:23:55;;;;;;;15.10;2.60;;;;;;;;;;5104864;28;20095;-68
2021/12/21 07:26:21;;;;;;;5.00;3.08;;;;;;;;;;5092340;28;20036;-69
2021/12/21 07:28:47;;;;;;;6.40;3.30;;;;;;;;;;5086649;28;20031;-68
2021/12/21 07:31:13;;;;;;;10.73;3.50;;;;;;;;;;5076681;28;20032;-74
2021/12/21 07:33:39;;;;;;;7.95;3.05;;;;;;;;;;5104454;28;20055;-68
2021/12/21 07:36:05;;;;;;;22.27;3.50;;;;;;;;;;5116496;28;20442;-68
2021/12/21 07:38:32;;;;;;;11.70;3.75;;;;;;;;;;5116323;28;20465;-71
2021/12/21 07:40:59;;;;;;;6.20;3.53;;;;;;;;;;5116617;28;20039;-71
2021/12/21 07:43:25;;;;;;;9.05;3.50;;;;;;;;;;5117022;28;20053;-71
2021/12/21 07:45:51;;;;;;;14.82;3.65;;;;;;;;;;5116907;28;20031;-72
2021/12/21 07:48:17;;;;;;;6.15;3.47;;;;;;;;;;5116613;28;20072;-72
2021/12/21 07:50:44;;;;;;;10.10;3.63;;;;;;;;;;5116523;28;20402;-72
2021/12/21 07:53:10;;;;;;;13.90;3.13;;;;;;;;;;5116342;28;20459;-70
2021/12/21 07:55:36;;;;;;;6.05;3.28;;;;;;;;;;5098124;28;20048;-70
2021/12/21 07:58:02;;;;;;;10.80;3.22;;;;;;;;;;5083698;28;20127;-70
2021/12/21 08:00:28;;;;;;;7.72;3.78;;;;;;;;;;5091398;28;20028;-69
2021/12/21 08:02:54;;;;;;;7.93;3.55;;;;;;;;;;5095577;28;20027;-68
2021/12/21 08:05:21;;;;;;;7.75;3.25;;;;;;;;;;5095717;28;20111;-70
2021/12/21 08:07:55;;;;;;;13.15;3.22;;;;;;;;;;5095431;28;20117;-70
2021/12/21 08:10:42;;;;;;;7.60;3.60;;;;;;;;;;5077420;28;20028;-69
2021/12/21 08:13:08;;;;;;;8.43;3.70;;;;;;;;;;5095470;28;20498;-70
2021/12/21 08:15:34;;;;;;;10.98;3.80;;;;;;;;;;5095442;28;20020;-70
2021/12/21 08:18:00;;;;;;;7.07;3.70;;;;;;;;;;5095273;28;20030;-69
2021/12/21 08:20:29;;;;;;;8.95;4.07;;;;;;;;;;5097184;28;20036;-69
2021/12/21 08:22:55;;;;;;;8.88;3.83;;;;;;;;;;5076936;28;20426;-69
2021/12/21 08:25:24;;;;;;;9.63;3.85;;;;;;;;;;5076931;28;20028;-69
2021/12/21 08:27:51;;;;;;;6.75;3.35;;;;;;;;;;5095161;28;20024;-70
2021/12/21 08:30:17;;;;;;;4.93;3.20;;;;;;;;;;5093935;28;20023;-70
2021/12/21 08:32:43;;;;;;;6.70;3.38;;;;;;;;;;5095288;28;20383;-69
2021/12/21 08:35:12;;;;;;;5.93;3.28;;;;;;;;;;5095358;28;20028;-68
2021/12/21 08:37:38;;;;;;;6.15;3.17;;;;;;;;;;5094724;28;20024;-68
2021/12/21 08:40:04;;;;;;;6.47;3.28;;;;;;;;;;5076391;28;20043;-69
2021/12/21 08:42:31;;;;;;;6.15;3.67;;;;;;;;;;5094039;28;20036;-69
2021/12/21 08:44:59;;;;;;;8.20;3.60;;;;;;;;;;5095660;28;20030;-69
2021/12/21 08:47:28;;;;;;;5.07;3.10;;;;;;;;;;5103303;28;20471;-70
2021/12/21 08:49:53;;;;;;;11.02;3.30;;;;;;;;;;5095153;28;20020;-74
2021/12/21 08:52:20;;;;;;;6.45;3.45;;;;;;;;;;5093791;28;20019;-70
2021/12/21 08:54:46;;;;;;;8.57;3.47;;;;;;;;;;5112466;28;20024;-70
2021/12/21 08:57:12;;;;;;;4.97;3.00;;;;;;;;;;5094521;28;20043;-70
2021/12/21 08:59:38;;;;;;;6.30;3.30;;;;;;;;;;5094333;28;20149;-71
2021/12/21 09:02:04;;;;;;;7.13;3.65;;;;;;;;;;5094540;28;20165;-70
2021/12/21 09:04:30;;;;;;;5.95;3.20;;;;;;;;;;5094719;28;20356;-70
2021/12/21 09:06:56;;;;;;;22.27;3.00;;;;;;;;;;5076451;28;20486;-71
2021/12/21 09:09:22;;;;;;;8.05;3.10;;;;;;;;;;5094515;28;20062;-70
2021/12/21 09:11:49;;;;;;;5.18;2.80;;;;;;;;;;5081932;28;20028;-71
2021/12/21 09:14:17;;;;;;;13.43;3.30;;;;;;;;;;5055980;28;20452;-70
2021/12/21 09:16:43;;;;;;;6.63;3.13;;;;;;;;;;5073739;28;20464;-69
2021/12/21 09:19:09;;;;;;;6.82;3.08;;;;;;;;;;5091725;28;20023;-70
2021/12/21 09:21:35;;;;;;;6.55;3.20;;;;;;;;;;5114350;28;20043;-70
2021/12/21 09:24:01;;;;;;;9.38;3.13;;;;;;;;;;5095682;28;20385;-70
2021/12/21 09:26:27;;;;;;;5.95;2.88;;;;;;;;;;5114094;28;20482;-69
2021/12/21 09:28:56;;;;;;;9.15;3.55;;;;;;;;;;5114593;28;20019;-70
2021/12/21 09:31:22;;;;;;;11.02;3.28;;;;;;;;;;5114139;28;20490;-69
2021/12/21 09:33:47;;;;;;;6.93;3.03;;;;;;;;;;5114301;28;20119;-69
2021/12/21 09:36:13;;;;;;;4.72;3.17;;;;;;;;;;5079950;28;20028;-69
2021/12/21 09:38:40;;;;;;;5.85;3.05;;;;;;;;;;5055425;28;20385;-70
2021/12/21 09:41:06;;;;;;;8.75;3.60;;;;;;;;;;5073577;28;20055;-69
2021/12/21 09:43:32;;;;;;;6.15;2.85;;;;;;;;;;5088855;28;20514;-69
2021/12/21 09:45:59;;;;;;;7.43;3.42;;;;;;;;;;5095638;28;20031;-70
2021/12/21 09:48:28;;;;;;;6.85;3.30;;;;;;;;;;5093930;28;20025;-70
2021/12/21 09:50:54;;;;;;;10.45;3.55;;;;;;;;;;5075593;28;20032;-70
2021/12/21 09:53:21;;;;;;;4.13;2.88;;;;;;;;;;5097594;28;20094;-69
2021/12/21 09:55:48;;;;;;;6.35;3.42;;;;;;;;;;5114900;28;20028;-70
2021/12/21 09:58:14;;;;;;;5.68;3.20;;;;;;;;;;5114317;28;20034;-68
2021/12/21 10:00:40;;;;;;;5.70;3.47;;;;;;;;;;5114063;28;20028;-68
2021/12/21 10:03:09;;;;;;;8.05;3.40;;;;;;;;;;5113845;28;20461;-68
2021/12/21 10:05:37;;;;;;;10.95;3.28;;;;;;;;;;5113895;28;20031;-68
2021/12/21 10:08:05;;;;;;;7.75;3.20;;;;;;;;;;5109601;27;20039;-69
2021/12/21 10:10:31;;;;;;;7.30;3.10;;;;;;;;;;5080499;28;20100;-68
2021/12/21 10:13:06;;;;;;;11.38;3.28;;;;;;;;;;5072891;28;20403;-68
2021/12/21 10:15:36;;;;;;;7.10;3.45;;;;;;;;;;5072856;28;20033;-68
2021/12/21 10:18:03;;;;;;;9.20;3.53;;;;;;;;;;5072712;28;20028;-69
2021/12/21 10:20:43;;;;;;;7.70;3.58;;;;;;;;;;5094613;28;20027;-69
2021/12/21 10:23:14;;;;;;;9.95;3.67;;;;;;;;;;5113362;28;20057;-69
2021/12/21 10:25:41;;;;;;;7.85;3.30;;;;;;;;;;5099966;28;20448;-69
2021/12/21 10:28:07;;;;;;;5.78;3.40;;;;;;;;;;5091855;28;20028;-69
2021/12/21 10:30:33;;;;;;;5.22;3.30;;;;;;;;;;5074248;28;20024;-69
2021/12/21 10:33:01;;;;;;;5.63;3.35;;;;;;;;;;5074283;28;20039;-68
2021/12/21 10:35:34;;;;;;;16.05;3.53;;;;;;;;;;5074542;28;20107;-68
2021/12/21 10:38:02;;;;;;;;;;;;;;;;;;5092847;28;20028;-67
2021/12/21 10:40:29;;;;;;;10.15;3.58;;;;;;;;;;5092187;28;20010;-67
2021/12/21 10:42:57;;;;;;;8.10;3.53;;;;;;;;;;5082043;28;20056;-68
2021/12/21 10:45:25;;;;;;;5.68;3.22;;;;;;;;;;5112992;28;20042;-68
2021/12/21 10:47:52;;;;;;;7.40;3.55;;;;;;;;;;5078951;28;20073;-68
2021/12/21 10:50:18;;;;;;;7.32;4.03;;;;;;;;;;5092414;28;20064;-68
2021/12/21 10:52:52;;;;;;;6.85;3.78;;;;;;;;;;5092532;28;20032;-67
2021/12/21 10:55:24;;;;;;;8.27;4.05;;;;;;;;;;5073607;28;20553;-68
2021/12/21 10:57:50;;;;;;;;;;;;;;;;;;5074700;28;20039;-68
2021/12/21 11:00:16;;;;;;;8.77;3.35;;;;;;;;;;5105564;28;19916;-68
2021/12/21 11:02:44;;;;;;;7.20;3.83;;;;;;;;;;5112516;28;20497;-69
2021/12/21 11:05:16;;;;;;;8.32;3.88;;;;;;;;;;5112114;28;20020;-68
2021/12/21 11:07:47;;;;;;;11.32;4.55;;;;;;;;;;5094515;28;20024;-69
2021/12/21 11:10:28;;;;;;;7.40;3.90;;;;;;;;;;5110527;28;20054;-67
2021/12/21 11:12:59;;;;;;;7.90;4.18;;;;;;;;;;5079565;28;20050;-67
2021/12/21 11:15:29;;;;;;;7.65;4.10;;;;;;;;;;5094112;28;20494;-71
2021/12/21 11:17:56;;;;;;;6.35;4.07;;;;;;;;;;5093218;28;20024;-69
2021/12/21 11:20:22;;;;;;;6.25;3.75;;;;;;;;;;5111232;28;20398;-70
2021/12/21 11:22:48;;;;;;;9.50;4.75;;;;;;;;;;5094460;28;20065;-71
2021/12/21 11:25:21;;;;;;;7.50;4.32;;;;;;;;;;5111886;28;20028;-70
2021/12/21 11:27:47;;;;;;;6.65;4.00;;;;;;;;;;5074303;28;20534;-69
2021/12/21 11:30:16;;;;;;;6.13;3.58;;;;;;;;;;5088861;28;20097;-69
2021/12/21 11:32:44;;;;;;;8.82;3.75;;;;;;;;;;5103361;28;20031;-71
2021/12/21 11:37:41;;;;;;;11.25;3.78;;;;;;;;;;5093619;28;20123;-70
2021/12/21 11:40:08;;;;;;;8.35;4.03;;;;;;;;;;5072212;28;20044;-69
2021/12/21 11:42:53;;;;;;;7.50;3.70;;;;;;;;;;5072953;28;20032;-69
2021/12/21 11:45:27;;;;;;;6.97;3.50;;;;;;;;;;5071664;28;20108;-70
2021/12/21 11:48:11;;;;;;;7.38;4.00;;;;;;;;;;5087358;28;20384;-69
2021/12/21 11:50:42;;;;;;;7.45;3.72;;;;;;;;;;5094427;28;20433;-69
2021/12/21 11:53:09;;;;;;;7.93;3.58;;;;;;;;;;5079379;28;20046;-70
2021/12/21 11:55:37;;;;;;;8.18;3.78;;;;;;;;;;5072021;28;20036;-69
2021/12/21 11:58:22;;;;;;;8.25;4.00;;;;;;;;;;5071609;28;20128;-69
2021/12/21 12:00:49;;;;;;;10.23;4.03;;;;;;;;;;5073424;28;20512;-69
2021/12/21 12:03:20;;;;;;;7.55;3.97;;;;;;;;;;5053216;28;20606;-69
2021/12/21 12:06:12;;;;;;;8.90;3.95;;;;;;;;;;5053243;28;20509;-69
2021/12/21 12:08:44;;;;;;;7.93;3.80;;;;;;;;;;5067804;28;20038;-69
2021/12/21 12:11:21;;;;;;;7.78;4.00;;;;;;;;;;5071950;28;20029;-69
2021/12/21 12:13:47;;;;;;;8.95;4.47;;;;;;;;;;5073483;28;20115;-70
2021/12/21 12:16:14;;;;;;;9.70;3.97;;;;;;;;;;5093079;28;20031;-69
2021/12/21 12:18:42;;;;;;;7.35;3.95;;;;;;;;;;5077599;28;20034;-69
2021/12/21 12:21:16;;;;;;;9.60;4.20;;;;;;;;;;5097033;28;20542;-70
2021/12/21 12:24:00;;;;;;;7.20;3.95;;;;;;;;;;5096487;28;20020;-70
2021/12/21 12:26:28;;;;;;;11.57;3.80;;;;;;;;;;5060596;28;20491;-69
2021/12/21 12:29:10;;;;;;;13.00;4.75;;;;;;;;;;5058196;28;20115;-68
2021/12/21 12:31:37;;;;;;;7.50;3.97;;;;;;;;;;5074871;28;20032;-67
2021/12/21 12:34:03;;;;;;;7.30;3.65;;;;;;;;;;5074557;28;20471;-66
2021/12/21 12:36:34;;;;;;;7.18;3.83;;;;;;;;;;5056606;28;20027;-67
2021/12/21 12:39:00;;;;;;;14.70;3.85;;;;;;;;;;5074357;28;20078;-68
2021/12/21 12:41:26;;;;;;;11.13;4.60;;;;;;;;;;5075957;28;20808;-67
2021/12/21 12:43:52;;;;;;;9.35;3.90;;;;;;;;;;5098611;28;20509;-69
2021/12/21 12:47:02;;;;;;;10.20;4.18;;;;;;;;;;5112657;28;20374;-67
2021/12/21 12:49:29;;;;;;;14.50;4.03;;;;;;;;;;5080849;28;20495;-71
2021/12/21 12:52:03;;;;;;;8.93;3.47;;;;;;;;;;5108911;28;20032;-70
2021/12/21 12:54:29;;;;;;;45.00;4.40;;;;;;;;;;5105123;28;20052;-69
2021/12/21 12:56:55;;;;;;;30.15;3.83;;;;;;;;;;5110106;28;20043;-70
2021/12/21 12:59:21;;;;;;;37.45;3.78;;;;;;;;;;5109352;28;20047;-68
2021/12/21 13:01:49;;;;;;;22.65;4.13;;;;;;;;;;5094455;28;20508;-73
2021/12/21 13:04:16;;;;;;;16.83;3.67;;;;;;;;;;5094532;28;20027;-73
2021/12/21 13:06:43;;;;;;;10.82;3.67;;;;;;;;;;5094472;28;20024;-74
2021/12/21 13:09:12;;;;;;;18.10;3.92;;;;;;;;;;5094896;28;20016;-74
2021/12/21 13:11:40;;;;;;;30.30;4.07;;;;;;;;;;5094477;28;20371;-71
2021/12/21 13:14:06;;;;;;;13.13;3.67;;;;;;;;;;5076034;28;20020;-73
2021/12/21 13:16:33;;;;;;;15.65;3.80;;;;;;;;;;5076058;28;20039;-73
2021/12/21 13:19:03;;;;;;;12.35;3.90;;;;;;;;;;5083962;28;20102;-66
2021/12/21 13:21:29;;;;;;;11.27;3.40;;;;;;;;;;5114340;28;20485;-74
2021/12/21 13:24:09;;;;;;;7.25;3.42;;;;;;;;;;5114790;28;20016;-70
2021/12/21 13:26:40;;;;;;;10.52;3.38;;;;;;;;;;5113928;28;20023;-70
2021/12/21 13:29:07;;;;;;;7.55;3.58;;;;;;;;;;5114235;28;20065;-69
2021/12/21 13:31:35;;;;;;;15.63;3.88;;;;;;;;;;5106229;28;20474;-73
2021/12/21 13:34:01;;;;;;;10.90;3.53;;;;;;;;;;5103083;28;20073;-69
2021/12/21 13:36:36;;;;;;;8.77;3.72;;;;;;;;;;5076051;28;20032;-73
2021/12/21 13:39:14;;;;;;;6.97;3.53;;;;;;;;;;5093728;28;20119;-72
2021/12/21 13:41:51;;;;;;;13.90;3.28;;;;;;;;;;5096070;28;20047;-68
2021/12/21 13:44:21;;;;;;;13.23;3.55;;;;;;;;;;5101668;28;20024;-68
2021/12/21 13:46:47;;;;;;;9.02;3.95;;;;;;;;;;5087958;28;20110;-70
2021/12/21 13:49:13;;;;;;;10.27;3.45;;;;;;;;;;5113964;28;20058;-70
2021/12/21 13:51:47;;;;;;;7.55;3.17;;;;;;;;;;5073166;28;20116;-70
2021/12/21 13:54:16;;;;;;;7.88;3.22;;;;;;;;;;5072588;28;20119;-68
2021/12/21 13:56:42;;;;;;;11.55;3.63;;;;;;;;;;5074459;28;20020;-70
2021/12/21 13:59:10;;;;;;;6.90;3.90;;;;;;;;;;5073596;28;20093;-71
2021/12/21 14:01:37;;;;;;;10.85;3.75;;;;;;;;;;5072894;28;20036;-73
2021/12/21 14:04:08;;;;;;;10.88;3.33;;;;;;;;;;5056474;28;20098;-69
2021/12/21 14:06:39;;;;;;;10.20;3.28;;;;;;;;;;5075485;28;20032;-68
2021/12/21 14:09:10;;;;;;;7.35;3.40;;;;;;;;;;5090221;28;20043;-69
2021/12/21 14:11:38;;;;;;;14.52;3.45;;;;;;;;;;5093578;28;20054;-72
2021/12/21 14:14:16;;;;;;;8.38;3.60;;;;;;;;;;5093627;28;20089;-66
2021/12/21 14:16:46;;;;;;;13.85;3.55;;;;;;;;;;5092974;28;20047;-66
2021/12/21 14:19:16;;;;;;;13.85;3.30;;;;;;;;;;5103104;28;20098;-73
2021/12/21 14:21:42;;;;;;;34.47;4.05;;;;;;;;;;5090100;28;20497;-65
2021/12/21 14:24:09;;;;;;;10.77;3.70;;;;;;;;;;5076681;28;20024;-72
2021/12/21 14:26:41;;;;;;;18.52;3.80;;;;;;;;;;5071405;28;20403;-73
2021/12/21 14:29:08;;;;;;;20.73;4.15;;;;;;;;;;5072434;28;20024;-70
2021/12/21 14:31:44;;;;;;;23.70;3.80;;;;;;;;;;5071841;28;20124;-68
2021/12/21 14:34:11;;;;;;;16.38;3.78;;;;;;;;;;5072038;28;20024;-66
2021/12/21 14:36:38;;;;;;;8.88;3.20;;;;;;;;;;5054085;28;20027;-66
2021/12/21 14:39:05;;;;;;;17.15;4.13;;;;;;;;;;5052987;28;20455;-66
2021/12/21 14:41:40;;;;;;;15.07;4.32;;;;;;;;;;5083381;28;20131;-64
2021/12/21 14:44:07;;;;;;;28.08;4.22;;;;;;;;;;5100198;28;20137;-70
2021/12/21 14:47:04;;;;;;;56.08;5.25;;;;;;;;;;5073262;28;20016;-74
2021/12/21 14:49:36;;;;;;;55.42;4.45;;;;;;;;;;5072776;28;20020;-67
2021/12/21 14:52:20;;;;;;;27.63;3.78;;;;;;;;;;5094829;28;20036;-68
2021/12/21 14:54:53;;;;;;;26.13;3.95;;;;;;;;;;5073146;28;20024;-72
2021/12/21 14:57:39;;;;;;;31.85;4.28;;;;;;;;;;5072055;28;20033;-69
2021/12/21 15:00:10;;;;;;;31.73;3.70;;;;;;;;;;5071710;28;20040;-67
2021/12/21 15:05:05;;;;;;;12.73;3.03;;;;;;;;;;5070092;28;20052;-63
2021/12/21 15:07:31;;;;;;;21.58;3.47;;;;;;;;;;5071695;28;20384;-69
2021/12/21 15:09:59;;;;;;;22.33;3.47;;;;;;;;;;5092121;28;20471;-68
2021/12/21 15:12:25;;;;;;;22.73;3.47;;;;;;;;;;5091924;28;20702;-64
2021/12/21 15:14:52;;;;;;;15.07;3.10;;;;;;;;;;5091913;28;20080;-68
2021/12/21 15:17:18;;;;;;;18.27;3.47;;;;;;;;;;5092178;28;20070;-64
2021/12/21 15:19:47;;;;;;;24.92;3.10;;;;;;;;;;5105811;28;20052;-64
2021/12/21 15:22:13;;;;;;;17.85;3.90;;;;;;;;;;5112151;28;20040;-68
2021/12/21 15:24:40;;;;;;;13.32;3.08;;;;;;;;;;5093794;28;20119;-64
2021/12/21 15:27:09;;;;;;;16.15;3.40;;;;;;;;;;5114134;28;20532;-69
2021/12/21 15:29:36;;;;;;;12.27;3.65;;;;;;;;;;5111218;28;20027;-71
2021/12/21 15:32:02;;;;;;;13.23;3.08;;;;;;;;;;5111773;28;20124;-71
2021/12/21 15:34:28;;;;;;;12.27;3.15;;;;;;;;;;5084411;28;20028;-71
2021/12/21 15:36:54;;;;;;;12.00;3.45;;;;;;;;;;5073967;28;20077;-69
2021/12/21 15:39:22;;;;;;;8.40;2.92;;;;;;;;;;5071858;28;20147;-64
2021/12/21 15:41:51;;;;;;;13.20;3.30;;;;;;;;;;5053774;28;20028;-72
2021/12/21 15:44:22;;;;;;;13.85;3.40;;;;;;;;;;5071415;28;20033;-72